Nanuq — WDE6894 — position and weather

sailwx.info

Track history (hours):
 
Tides and Currents Weather Stations Pressure Air Temp Water Temp Dewpoint Dewpoint Depression Visibility Wind Speed Wind Dir Waves Ship Positions

Nanuq

Owner: Doncaster Mr, Glenn W, Raleigh, NC. More information available from US FCC via Universal Licensing System and Coast Guard Vessel Documentation Center.

Last reported at 2015-Jun-28 01:25 UTC. Time now 2015-Jul-08 04:20 UTC.
Position N 41°29' W 071°19'.
Warning: this ship's position is 10 days out of date.

Length 13 m.

Type: Sailing vessel. MMSI: 367386290.

Date/timePositionNaut miles runAvg speedWind from/ knotsBaromVisibWave heightAir tempDewpointWater temp
2015-Jun-28 01:25N 41°29' W 071°19'5 0.7
2015-Jun-27 18:26N 41°26' W 071°24'6 7.0
2015-Jun-27 17:33N 41°21' W 071°28'7 7.1
2015-Jun-27 16:33N 41°15' W 071°34'4 0.2
2015-Jun-26 18:27N 41°11' W 071°35'3 3.8
2015-Jun-26 17:33N 41°10' W 071°39'0 0.2
2015-Jun-26 16:33N 41°10' W 071°39'3 0.2
2015-Jun-25 21:14N 41°11' W 071°35'0 0.5
2015-Jun-25 20:33N 41°11' W 071°35'4 3.8
2015-Jun-25 19:33N 41°09' W 071°39'1 1.1
2015-Jun-25 18:33N 41°10' W 071°38'1 0.6
2015-Jun-25 17:33N 41°09' W 071°38'1 0.7
2015-Jun-25 16:33N 41°10' W 071°38'1 1.2
2015-Jun-25 15:33N 41°09' W 071°38'4 3.7
2015-Jun-25 14:33N 41°11' W 071°35'0 0.3
2015-Jun-25 13:33N 41°11' W 071°35'0 0.0
2015-Jun-25 11:33N 41°11' W 071°35'1 1.1
2015-Jun-25 10:33N 41°12' W 071°35'1 0.1
2015-Jun-24 20:33N 41°11' W 071°35'3 3.5
2015-Jun-24 19:33N 41°09' W 071°39'1 1.1
2015-Jun-24 18:33N 41°10' W 071°38'0 0.2
2015-Jun-24 17:33N 41°10' W 071°38'0 0.1
2015-Jun-24 16:33N 41°10' W 071°38'1 0.8
2015-Jun-24 15:33N 41°09' W 071°38'3 3.1
2015-Jun-24 14:33N 41°11' W 071°35'0 0.0
2015-Jun-24 13:33N 41°11' W 071°35'0 0.0
2015-Jun-24 12:33N 41°11' W 071°35'0 0.0
2015-Jun-23 20:33N 41°11' W 071°35'0 0.4
2015-Jun-23 19:33N 41°11' W 071°35'2 4.8
2015-Jun-23 19:05N 41°13' W 071°36'4 0.2
2015-Jun-22 19:33N 41°10' W 071°38'0 0.2
2015-Jun-22 18:34N 41°10' W 071°38'1 0.7
2015-Jun-22 17:33N 41°10' W 071°39'1 1.0
2015-Jun-22 16:33N 41°10' W 071°38'1 0.6
2015-Jun-22 15:33N 41°10' W 071°38'0 0.2
2015-Jun-22 14:33N 41°10' W 071°39'2 2.3
2015-Jun-22 13:33N 41°11' W 071°37'2 0.0
2015-Jun-20 20:20N 41°11' W 071°35'0 0.0
2015-Jun-20 19:32N 41°11' W 071°35'4 3.7
2015-Jun-20 18:33N 41°12' W 071°40'2 2.4
2015-Jun-20 17:33N 41°13' W 071°37'2 2.4
2015-Jun-20 16:33N 41°11' W 071°35'0 0.0
2015-Jun-20 15:33N 41°11' W 071°35'0 0.0
2015-Jun-20 14:33N 41°11' W 071°35'0 0.0
2015-Jun-19 19:09N 41°11' W 071°35'1 1.0
2015-Jun-19 18:33N 41°12' W 071°35'5 5.4
2015-Jun-19 17:33N 41°17' W 071°34'5 4.7
2015-Jun-19 16:33N 41°18' W 071°28'13 0.7
2015-Jun-18 22:25N 41°29' W 071°19'0 0.0
2015-Jun-18 21:19N 41°29' W 071°19'  
Track history (hours):
 
Tides and Currents Weather Stations Pressure Air Temp Water Temp Dewpoint Dewpoint Depression Visibility Wind Speed Wind Dir Waves Ship Positions

Nanuq

Owner: Doncaster Mr, Glenn W, Raleigh, NC. More information available from US FCC via Universal Licensing System and Coast Guard Vessel Documentation Center.

Last reported at 2015-Jun-28 01:25 UTC. Time now 2015-Jul-08 04:20 UTC.
Position N 41°29' W 071°19'.
Warning: this ship's position is 10 days out of date.

Length 13 m.

Type: Sailing vessel. MMSI: 367386290.

Date/timePositionNaut miles runAvg speedWind from/ knotsBaromVisibWave heightAir tempDewpointWater temp
2015-Jun-28 01:25N 41°29' W 071°19'5 0.7
2015-Jun-27 18:26N 41°26' W 071°24'6 7.0
2015-Jun-27 17:33N 41°21' W 071°28'7 7.1
2015-Jun-27 16:33N 41°15' W 071°34'4 0.2
2015-Jun-26 18:27N 41°11' W 071°35'3 3.8
2015-Jun-26 17:33N 41°10' W 071°39'0 0.2
2015-Jun-26 16:33N 41°10' W 071°39'3 0.2
2015-Jun-25 21:14N 41°11' W 071°35'0 0.5
2015-Jun-25 20:33N 41°11' W 071°35'4 3.8
2015-Jun-25 19:33N 41°09' W 071°39'1 1.1
2015-Jun-25 18:33N 41°10' W 071°38'1 0.6
2015-Jun-25 17:33N 41°09' W 071°38'1 0.7
2015-Jun-25 16:33N 41°10' W 071°38'1 1.2
2015-Jun-25 15:33N 41°09' W 071°38'4 3.7
2015-Jun-25 14:33N 41°11' W 071°35'0 0.3
2015-Jun-25 13:33N 41°11' W 071°35'0 0.0
2015-Jun-25 11:33N 41°11' W 071°35'1 1.1
2015-Jun-25 10:33N 41°12' W 071°35'1 0.1
2015-Jun-24 20:33N 41°11' W 071°35'3 3.5
2015-Jun-24 19:33N 41°09' W 071°39'1 1.1
2015-Jun-24 18:33N 41°10' W 071°38'0 0.2
2015-Jun-24 17:33N 41°10' W 071°38'0 0.1
2015-Jun-24 16:33N 41°10' W 071°38'1 0.8
2015-Jun-24 15:33N 41°09' W 071°38'3 3.1
2015-Jun-24 14:33N 41°11' W 071°35'0 0.0
2015-Jun-24 13:33N 41°11' W 071°35'0 0.0
2015-Jun-24 12:33N 41°11' W 071°35'0 0.0
2015-Jun-23 20:33N 41°11' W 071°35'0 0.4
2015-Jun-23 19:33N 41°11' W 071°35'2 4.8
2015-Jun-23 19:05N 41°13' W 071°36'4 0.2
2015-Jun-22 19:33N 41°10' W 071°38'0 0.2
2015-Jun-22 18:34N 41°10' W 071°38'1 0.7
2015-Jun-22 17:33N 41°10' W 071°39'1 1.0
2015-Jun-22 16:33N 41°10' W 071°38'1 0.6
2015-Jun-22 15:33N 41°10' W 071°38'0 0.2
2015-Jun-22 14:33N 41°10' W 071°39'2 2.3
2015-Jun-22 13:33N 41°11' W 071°37'2 0.0
2015-Jun-20 20:20N 41°11' W 071°35'0 0.0
2015-Jun-20 19:32N 41°11' W 071°35'4 3.7
2015-Jun-20 18:33N 41°12' W 071°40'2 2.4
2015-Jun-20 17:33N 41°13' W 071°37'2 2.4
2015-Jun-20 16:33N 41°11' W 071°35'0 0.0
2015-Jun-20 15:33N 41°11' W 071°35'0 0.0
2015-Jun-20 14:33N 41°11' W 071°35'0 0.0
2015-Jun-19 19:09N 41°11' W 071°35'1 1.0
2015-Jun-19 18:33N 41°12' W 071°35'5 5.4
2015-Jun-19 17:33N 41°17' W 071°34'5 4.7
2015-Jun-19 16:33N 41°18' W 071°28'13 0.7
2015-Jun-18 22:25N 41°29' W 071°19'0 0.0
2015-Jun-18 21:19N 41°29' W 071°19'  

Dump ship's entire track history